sensor_id;sensor_type;location;lat;lon;timestamp;P1;durP1;ratioP1;P2;durP2;ratioP2
44706;SDS011;30433;45.596;8.408;2023-12-22T00:10:43;9.77;;;6.35;;
44706;SDS011;30433;45.596;8.408;2023-12-22T00:16:47;11.35;;;7.15;;
44706;SDS011;30433;45.596;8.408;2023-12-22T00:28:51;9.82;;;5.03;;
44706;SDS011;30433;45.596;8.408;2023-12-22T00:34:55;5.88;;;3.10;;
44706;SDS011;30433;45.596;8.408;2023-12-22T00:40:58;4.50;;;3.20;;
44706;SDS011;30433;45.596;8.408;2023-12-22T00:47:00;5.75;;;3.53;;
44706;SDS011;30433;45.596;8.408;2023-12-22T00:53:04;8.05;;;4.90;;
44706;SDS011;30433;45.596;8.408;2023-12-22T01:05:08;8.70;;;5.00;;
44706;SDS011;30433;45.596;8.408;2023-12-22T01:11:11;10.15;;;5.80;;
44706;SDS011;30433;45.596;8.408;2023-12-22T01:30:14;6.78;;;4.38;;
44706;SDS011;30433;45.596;8.408;2023-12-22T01:42:18;2.92;;;1.63;;
44706;SDS011;30433;45.596;8.408;2023-12-22T01:48:22;4.38;;;2.03;;
44706;SDS011;30433;45.596;8.408;2023-12-22T01:54:24;2.40;;;1.42;;
44706;SDS011;30433;45.596;8.408;2023-12-22T02:00:26;2.90;;;1.50;;
44706;SDS011;30433;45.596;8.408;2023-12-22T02:06:30;1.90;;;1.33;;
44706;SDS011;30433;45.596;8.408;2023-12-22T02:12:35;3.28;;;1.33;;
44706;SDS011;30433;45.596;8.408;2023-12-22T02:18:38;5.35;;;1.60;;
44706;SDS011;30433;45.596;8.408;2023-12-22T02:24:45;2.25;;;1.48;;
44706;SDS011;30433;45.596;8.408;2023-12-22T02:36:53;1.02;;;0.20;;
44706;SDS011;30433;45.596;8.408;2023-12-22T02:42:57;1.67;;;0.22;;
44706;SDS011;30433;45.596;8.408;2023-12-22T02:49:00;2.00;;;0.50;;
44706;SDS011;30433;45.596;8.408;2023-12-22T02:55:02;0.20;;;0.10;;
44706;SDS011;30433;45.596;8.408;2023-12-22T03:07:09;1.10;;;0.30;;
44706;SDS011;30433;45.596;8.408;2023-12-22T03:13:11;1.08;;;0.20;;
44706;SDS011;30433;45.596;8.408;2023-12-22T03:19:14;1.13;;;0.10;;
44706;SDS011;30433;45.596;8.408;2023-12-22T03:25:17;0.57;;;0.20;;
44706;SDS011;30433;45.596;8.408;2023-12-22T03:31:19;1.40;;;0.20;;
44706;SDS011;30433;45.596;8.408;2023-12-22T03:37:23;1.70;;;0.20;;
44706;SDS011;30433;45.596;8.408;2023-12-22T03:43:25;1.70;;;0.20;;
44706;SDS011;30433;45.596;8.408;2023-12-22T03:49:27;0.28;;;0.15;;
44706;SDS011;30433;45.596;8.408;2023-12-22T03:55:30;0.35;;;0.10;;
44706;SDS011;30433;45.596;8.408;2023-12-22T04:01:33;1.13;;;0.20;;
44706;SDS011;30433;45.596;8.408;2023-12-22T04:07:35;0.30;;;0.10;;
44706;SDS011;30433;45.596;8.408;2023-12-22T04:13:38;0.90;;;0.20;;
44706;SDS011;30433;45.596;8.408;2023-12-22T04:19:41;3.28;;;0.40;;
44706;SDS011;30433;45.596;8.408;2023-12-22T04:25:43;0.43;;;0.20;;
44706;SDS011;30433;45.596;8.408;2023-12-22T04:31:46;0.95;;;0.20;;
44706;SDS011;30433;45.596;8.408;2023-12-22T04:37:48;1.80;;;0.28;;
44706;SDS011;30433;45.596;8.408;2023-12-22T04:43:50;0.30;;;0.10;;
44706;SDS011;30433;45.596;8.408;2023-12-22T04:49:54;0.57;;;0.20;;
44706;SDS011;30433;45.596;8.408;2023-12-22T04:55:56;0.25;;;0.10;;
44706;SDS011;30433;45.596;8.408;2023-12-22T05:01:58;2.53;;;0.10;;
44706;SDS011;30433;45.596;8.408;2023-12-22T05:08:02;2.28;;;0.28;;
44706;SDS011;30433;45.596;8.408;2023-12-22T05:14:04;1.00;;;0.30;;
44706;SDS011;30433;45.596;8.408;2023-12-22T05:20:06;0.38;;;0.20;;
44706;SDS011;30433;45.596;8.408;2023-12-22T05:26:11;2.22;;;0.30;;
44706;SDS011;30433;45.596;8.408;2023-12-22T05:32:18;1.70;;;0.88;;
44706;SDS011;30433;45.596;8.408;2023-12-22T05:38:20;2.75;;;1.58;;
44706;SDS011;30433;45.596;8.408;2023-12-22T05:44:23;3.83;;;0.50;;
44706;SDS011;30433;45.596;8.408;2023-12-22T05:50:29;1.98;;;0.45;;
44706;SDS011;30433;45.596;8.408;2023-12-22T05:56:31;1.98;;;0.30;;
44706;SDS011;30433;45.596;8.408;2023-12-22T06:02:35;1.90;;;0.33;;
44706;SDS011;30433;45.596;8.408;2023-12-22T06:08:38;2.45;;;0.20;;
44706;SDS011;30433;45.596;8.408;2023-12-22T06:14:41;0.60;;;0.30;;
44706;SDS011;30433;45.596;8.408;2023-12-22T06:20:44;2.00;;;0.40;;
44706;SDS011;30433;45.596;8.408;2023-12-22T06:26:46;2.97;;;0.52;;
44706;SDS011;30433;45.596;8.408;2023-12-22T06:32:48;6.07;;;3.92;;
44706;SDS011;30433;45.596;8.408;2023-12-22T06:38:52;6.00;;;3.35;;
44706;SDS011;30433;45.596;8.408;2023-12-22T06:44:54;0.82;;;0.45;;
44706;SDS011;30433;45.596;8.408;2023-12-22T06:50:56;1.30;;;0.32;;
44706;SDS011;30433;45.596;8.408;2023-12-22T06:57:00;2.90;;;0.25;;
44706;SDS011;30433;45.596;8.408;2023-12-22T07:03:02;2.83;;;0.40;;
44706;SDS011;30433;45.596;8.408;2023-12-22T07:15:36;2.17;;;0.25;;
44706;SDS011;30433;45.596;8.408;2023-12-22T07:21:38;3.13;;;0.40;;
44706;SDS011;30433;45.596;8.408;2023-12-22T07:27:40;0.80;;;0.20;;
44706;SDS011;30433;45.596;8.408;2023-12-22T07:33:43;1.40;;;0.35;;
44706;SDS011;30433;45.596;8.408;2023-12-22T07:39:46;1.75;;;0.30;;
44706;SDS011;30433;45.596;8.408;2023-12-22T07:45:48;2.45;;;0.60;;
44706;SDS011;30433;45.596;8.408;2023-12-22T07:51:52;0.25;;;0.20;;
44706;SDS011;30433;45.596;8.408;2023-12-22T07:57:54;2.92;;;0.70;;
44706;SDS011;30433;45.596;8.408;2023-12-22T08:03:56;1.58;;;0.90;;
44706;SDS011;30433;45.596;8.408;2023-12-22T08:10:00;1.17;;;0.60;;
44706;SDS011;30433;45.596;8.408;2023-12-22T08:16:03;1.25;;;0.65;;
44706;SDS011;30433;45.596;8.408;2023-12-22T08:22:05;1.15;;;0.57;;
44706;SDS011;30433;45.596;8.408;2023-12-22T08:28:09;2.92;;;0.80;;
44706;SDS011;30433;45.596;8.408;2023-12-22T08:34:12;11.55;;;7.05;;
44706;SDS011;30433;45.596;8.408;2023-12-22T08:40:14;2.45;;;1.38;;
44706;SDS011;30433;45.596;8.408;2023-12-22T08:46:18;2.60;;;0.40;;
44706;SDS011;30433;45.596;8.408;2023-12-22T08:52:20;1.10;;;0.50;;
44706;SDS011;30433;45.596;8.408;2023-12-22T08:58:22;1.67;;;0.60;;
44706;SDS011;30433;45.596;8.408;2023-12-22T09:04:26;2.03;;;0.32;;
44706;SDS011;30433;45.596;8.408;2023-12-22T09:10:28;0.43;;;0.10;;
44706;SDS011;30433;45.596;8.408;2023-12-22T09:16:30;1.48;;;0.40;;
44706;SDS011;30433;45.596;8.408;2023-12-22T09:22:33;1.50;;;0.30;;
44706;SDS011;30433;45.596;8.408;2023-12-22T09:28:35;7.32;;;3.05;;
44706;SDS011;30433;45.596;8.408;2023-12-22T09:34:37;2.47;;;0.80;;
44706;SDS011;30433;45.596;8.408;2023-12-22T09:40:42;0.98;;;0.60;;
44706;SDS011;30433;45.596;8.408;2023-12-22T09:46:44;1.23;;;0.70;;
44706;SDS011;30433;45.596;8.408;2023-12-22T09:58:50;1.20;;;0.50;;
44706;SDS011;30433;45.596;8.408;2023-12-22T10:04:54;0.70;;;0.40;;
44706;SDS011;30433;45.596;8.408;2023-12-22T10:10:56;0.68;;;0.43;;
44706;SDS011;30433;45.596;8.408;2023-12-22T10:17:00;1.10;;;0.68;;
44706;SDS011;30433;45.596;8.408;2023-12-22T10:23:03;0.45;;;0.20;;
44706;SDS011;30433;45.596;8.408;2023-12-22T10:29:06;0.43;;;0.20;;
44706;SDS011;30433;45.596;8.408;2023-12-22T10:35:11;0.30;;;0.10;;
44706;SDS011;30433;45.596;8.408;2023-12-22T10:41:13;0.32;;;0.20;;
44706;SDS011;30433;45.596;8.408;2023-12-22T10:47:16;1.80;;;0.30;;
44706;SDS011;30433;45.596;8.408;2023-12-22T10:53:20;0.40;;;0.30;;
44706;SDS011;30433;45.596;8.408;2023-12-22T10:59:24;1.85;;;0.30;;
44706;SDS011;30433;45.596;8.408;2023-12-22T11:05:30;1.00;;;0.30;;
44706;SDS011;30433;45.596;8.408;2023-12-22T11:11:36;0.60;;;0.20;;
44706;SDS011;30433;45.596;8.408;2023-12-22T11:17:40;0.15;;;0.10;;
44706;SDS011;30433;45.596;8.408;2023-12-22T11:23:44;0.03;;;0.00;;
44706;SDS011;30433;45.596;8.408;2023-12-22T11:29:48;1.10;;;0.20;;
44706;SDS011;30433;45.596;8.408;2023-12-22T11:35:51;0.90;;;0.30;;
44706;SDS011;30433;45.596;8.408;2023-12-22T11:41:55;0.32;;;0.20;;
44706;SDS011;30433;45.596;8.408;2023-12-22T11:48:06;0.57;;;0.22;;
44706;SDS011;30433;45.596;8.408;2023-12-22T12:00:41;0.32;;;0.20;;
44706;SDS011;30433;45.596;8.408;2023-12-22T12:06:45;0.53;;;0.30;;
44706;SDS011;30433;45.596;8.408;2023-12-22T12:12:47;0.43;;;0.20;;
44706;SDS011;30433;45.596;8.408;2023-12-22T12:19:06;0.52;;;0.40;;
44706;SDS011;30433;45.596;8.408;2023-12-22T12:25:10;1.92;;;1.25;;
44706;SDS011;30433;45.596;8.408;2023-12-22T12:31:13;0.90;;;0.30;;
44706;SDS011;30433;45.596;8.408;2023-12-22T12:37:15;1.77;;;0.30;;
44706;SDS011;30433;45.596;8.408;2023-12-22T12:43:21;1.42;;;0.40;;
44706;SDS011;30433;45.596;8.408;2023-12-22T12:49:23;0.43;;;0.30;;
44706;SDS011;30433;45.596;8.408;2023-12-22T12:55:27;1.58;;;0.40;;
44706;SDS011;30433;45.596;8.408;2023-12-22T13:01:32;0.60;;;0.28;;
44706;SDS011;30433;45.596;8.408;2023-12-22T13:07:39;2.53;;;0.40;;
44706;SDS011;30433;45.596;8.408;2023-12-22T13:13:42;1.53;;;0.57;;
44706;SDS011;30433;45.596;8.408;2023-12-22T13:19:46;0.45;;;0.20;;
44706;SDS011;30433;45.596;8.408;2023-12-22T13:25:48;0.50;;;0.30;;
44706;SDS011;30433;45.596;8.408;2023-12-22T13:31:51;0.63;;;0.30;;
44706;SDS011;30433;45.596;8.408;2023-12-22T13:37:54;1.47;;;0.50;;
44706;SDS011;30433;45.596;8.408;2023-12-22T13:43:57;0.30;;;0.20;;
44706;SDS011;30433;45.596;8.408;2023-12-22T13:56:04;1.75;;;0.45;;
44706;SDS011;30433;45.596;8.408;2023-12-22T14:02:06;3.30;;;0.68;;
44706;SDS011;30433;45.596;8.408;2023-12-22T14:08:08;6.40;;;1.00;;
44706;SDS011;30433;45.596;8.408;2023-12-22T14:14:12;3.77;;;0.80;;
44706;SDS011;30433;45.596;8.408;2023-12-22T14:20:15;1.95;;;0.55;;
44706;SDS011;30433;45.596;8.408;2023-12-22T14:26:19;1.17;;;0.57;;
44706;SDS011;30433;45.596;8.408;2023-12-22T14:32:23;1.27;;;0.50;;
44706;SDS011;30433;45.596;8.408;2023-12-22T14:38:25;2.20;;;0.70;;
44706;SDS011;30433;45.596;8.408;2023-12-22T14:44:27;1.10;;;0.80;;
44706;SDS011;30433;45.596;8.408;2023-12-22T14:50:30;1.43;;;0.43;;
44706;SDS011;30433;45.596;8.408;2023-12-22T14:56:32;0.75;;;0.50;;
44706;SDS011;30433;45.596;8.408;2023-12-22T15:02:34;2.10;;;0.82;;
44706;SDS011;30433;45.596;8.408;2023-12-22T15:08:38;1.50;;;0.68;;
44706;SDS011;30433;45.596;8.408;2023-12-22T15:14:43;2.33;;;0.50;;
44706;SDS011;30433;45.596;8.408;2023-12-22T15:20:45;2.05;;;0.60;;
44706;SDS011;30433;45.596;8.408;2023-12-22T15:26:52;8.35;;;1.08;;
44706;SDS011;30433;45.596;8.408;2023-12-22T15:32:55;2.25;;;0.85;;
44706;SDS011;30433;45.596;8.408;2023-12-22T15:38:57;1.85;;;0.82;;
44706;SDS011;30433;45.596;8.408;2023-12-22T15:45:00;2.28;;;0.80;;
44706;SDS011;30433;45.596;8.408;2023-12-22T15:51:06;3.40;;;1.17;;
44706;SDS011;30433;45.596;8.408;2023-12-22T15:57:09;4.53;;;2.30;;
44706;SDS011;30433;45.596;8.408;2023-12-22T16:10:09;2.60;;;1.60;;
44706;SDS011;30433;45.596;8.408;2023-12-22T16:16:16;4.32;;;1.15;;
44706;SDS011;30433;45.596;8.408;2023-12-22T16:22:19;4.13;;;1.20;;
44706;SDS011;30433;45.596;8.408;2023-12-22T16:28:22;5.68;;;1.70;;
44706;SDS011;30433;45.596;8.408;2023-12-22T16:34:24;9.07;;;3.88;;
44706;SDS011;30433;45.596;8.408;2023-12-22T16:40:27;4.18;;;1.73;;
44706;SDS011;30433;45.596;8.408;2023-12-22T16:46:30;8.23;;;2.17;;
44706;SDS011;30433;45.596;8.408;2023-12-22T16:52:33;6.82;;;1.92;;
44706;SDS011;30433;45.596;8.408;2023-12-22T16:58:35;14.45;;;2.45;;
44706;SDS011;30433;45.596;8.408;2023-12-22T17:04:40;10.52;;;2.53;;
44706;SDS011;30433;45.596;8.408;2023-12-22T17:10:42;15.15;;;2.88;;
44706;SDS011;30433;45.596;8.408;2023-12-22T17:16:44;6.82;;;3.05;;
44706;SDS011;30433;45.596;8.408;2023-12-22T17:22:48;10.60;;;3.40;;
44706;SDS011;30433;45.596;8.408;2023-12-22T17:28:50;7.38;;;3.03;;
44706;SDS011;30433;45.596;8.408;2023-12-22T17:34:52;7.78;;;3.28;;
44706;SDS011;30433;45.596;8.408;2023-12-22T17:40:55;9.00;;;5.20;;
44706;SDS011;30433;45.596;8.408;2023-12-22T17:46:58;7.20;;;3.70;;
44706;SDS011;30433;45.596;8.408;2023-12-22T17:53:03;9.30;;;3.15;;
44706;SDS011;30433;45.596;8.408;2023-12-22T17:59:07;5.47;;;2.42;;
44706;SDS011;30433;45.596;8.408;2023-12-22T18:05:10;5.65;;;3.13;;
44706;SDS011;30433;45.596;8.408;2023-12-22T18:11:12;8.10;;;3.70;;
44706;SDS011;30433;45.596;8.408;2023-12-22T18:17:16;8.80;;;3.40;;
44706;SDS011;30433;45.596;8.408;2023-12-22T18:23:19;11.35;;;4.88;;
44706;SDS011;30433;45.596;8.408;2023-12-22T18:29:21;9.02;;;3.17;;
44706;SDS011;30433;45.596;8.408;2023-12-22T18:35:24;3.90;;;2.47;;
44706;SDS011;30433;45.596;8.408;2023-12-22T18:41:27;4.32;;;2.67;;
44706;SDS011;30433;45.596;8.408;2023-12-22T18:47:29;9.82;;;4.43;;
44706;SDS011;30433;45.596;8.408;2023-12-22T18:53:33;9.38;;;4.65;;
44706;SDS011;30433;45.596;8.408;2023-12-22T18:59:35;5.35;;;2.50;;
44706;SDS011;30433;45.596;8.408;2023-12-22T19:05:37;4.03;;;2.53;;
44706;SDS011;30433;45.596;8.408;2023-12-22T19:11:41;6.80;;;3.17;;
44706;SDS011;30433;45.596;8.408;2023-12-22T19:17:44;4.95;;;2.70;;
44706;SDS011;30433;45.596;8.408;2023-12-22T19:23:46;6.65;;;2.63;;
44706;SDS011;30433;45.596;8.408;2023-12-22T19:29:50;4.45;;;2.60;;
44706;SDS011;30433;45.596;8.408;2023-12-22T19:35:52;4.72;;;3.00;;
44706;SDS011;30433;45.596;8.408;2023-12-22T19:41:54;4.63;;;2.92;;
44706;SDS011;30433;45.596;8.408;2023-12-22T19:47:58;5.03;;;2.70;;
44706;SDS011;30433;45.596;8.408;2023-12-22T19:54:00;4.28;;;2.88;;
44706;SDS011;30433;45.596;8.408;2023-12-22T20:00:03;5.47;;;2.75;;
44706;SDS011;30433;45.596;8.408;2023-12-22T20:13:05;3.70;;;2.90;;
44706;SDS011;30433;45.596;8.408;2023-12-22T20:19:08;4.45;;;3.03;;
44706;SDS011;30433;45.596;8.408;2023-12-22T20:25:10;4.85;;;2.80;;
44706;SDS011;30433;45.596;8.408;2023-12-22T20:31:14;4.10;;;2.78;;
44706;SDS011;30433;45.596;8.408;2023-12-22T20:37:16;6.28;;;2.95;;
44706;SDS011;30433;45.596;8.408;2023-12-22T20:43:19;5.43;;;2.60;;
44706;SDS011;30433;45.596;8.408;2023-12-22T20:49:23;5.20;;;3.15;;
44706;SDS011;30433;45.596;8.408;2023-12-22T20:55:25;3.97;;;2.88;;
44706;SDS011;30433;45.596;8.408;2023-12-22T21:01:27;4.43;;;2.53;;
44706;SDS011;30433;45.596;8.408;2023-12-22T21:07:31;4.95;;;2.50;;
44706;SDS011;30433;45.596;8.408;2023-12-22T21:13:33;3.22;;;2.17;;
44706;SDS011;30433;45.596;8.408;2023-12-22T21:19:36;3.88;;;2.00;;
44706;SDS011;30433;45.596;8.408;2023-12-22T21:25:40;4.33;;;2.30;;
44706;SDS011;30433;45.596;8.408;2023-12-22T21:31:42;4.07;;;1.90;;
44706;SDS011;30433;45.596;8.408;2023-12-22T21:37:44;3.33;;;1.98;;
44706;SDS011;30433;45.596;8.408;2023-12-22T21:43:49;2.75;;;1.85;;
44706;SDS011;30433;45.596;8.408;2023-12-22T21:55:53;3.05;;;1.90;;
44706;SDS011;30433;45.596;8.408;2023-12-22T22:01:57;2.90;;;1.97;;
44706;SDS011;30433;45.596;8.408;2023-12-22T22:07:59;4.00;;;2.47;;
44706;SDS011;30433;45.596;8.408;2023-12-22T22:14:01;4.68;;;2.60;;
44706;SDS011;30433;45.596;8.408;2023-12-22T22:20:06;3.22;;;2.20;;
44706;SDS011;30433;45.596;8.408;2023-12-22T22:26:10;2.95;;;2.10;;
44706;SDS011;30433;45.596;8.408;2023-12-22T22:32:12;3.95;;;2.25;;
44706;SDS011;30433;45.596;8.408;2023-12-22T22:38:15;4.47;;;1.92;;
44706;SDS011;30433;45.596;8.408;2023-12-22T22:50:19;4.15;;;2.30;;
44706;SDS011;30433;45.596;8.408;2023-12-22T22:56:23;3.78;;;2.63;;
44706;SDS011;30433;45.596;8.408;2023-12-22T23:08:29;8.25;;;2.70;;
44706;SDS011;30433;45.596;8.408;2023-12-22T23:14:33;3.83;;;1.80;;
44706;SDS011;30433;45.596;8.408;2023-12-22T23:26:38;3.25;;;1.83;;
44706;SDS011;30433;45.596;8.408;2023-12-22T23:32:43;4.15;;;2.28;;
44706;SDS011;30433;45.596;8.408;2023-12-22T23:38:46;4.50;;;2.00;;
44706;SDS011;30433;45.596;8.408;2023-12-22T23:44:48;3.38;;;2.00;;
44706;SDS011;30433;45.596;8.408;2023-12-22T23:50:52;4.22;;;2.38;;
